メインページ
METAR-TAF:

METAR-TAF

空港 :

ドバイ, アラブ首長国連邦

ドバイ国際空港

緯度: 25-15-10N, 経度: 055-21-52E, 海抜: 8m

現時点の気象観測

当レポートは44分前の14:00(UTC)に作成
北/北西の風 10kt
気温 38°C
湿度 48%
気圧 996 hPa
視程: 7000m

METAR: OMDB 271400Z 33010KT 7000 NSC 38/25 Q0996 TEMPO 09015KT

時間: 18:44 (14:44 UTC)

予報

当レポートは1時間4分前の13:40(UTC)に作成
予報は27日の 13時(UTC)から 28日の 18時(UTC)まで有効
北西の風 10kt
視程: 8000m
確率 30% :
27日の 13時(UTC)から 27日の 16時(UTC)まで一時的に
の風 15kt、最大25ktの突風を伴う
視程: 3000m
風塵
27日の 16時(UTC)から 27日の 18時(UTC)まで徐々に
変向風 2kt
28日の 06時(UTC)から 28日の 08時(UTC)まで徐々に
北/北西の風 12kt
28日の 16時(UTC)から 28日の 18時(UTC)まで徐々に
の風 5kt

TAF: OMDB 271340Z 2713/2818 32010KT 8000 NSC PROB30 TEMPO 2713/2716 10015G25KT 3000 BLDU BECMG 2716/2718 VRB02KT BECMG 2806/2808 34012KT BECMG 2816/2818 09005KT

4,000以上の空港の気象観測と天気予報(METAR報とTAF報)

利用可能な観測所は地図上に黄色い丸と赤い丸で示す。

丸の上にカーソルを重ねると観測所名を参照できる。

次にクリックすると気象観測と天気予報を参照できる。

マップの切り替え:黒色「×」印の緑ボタンをクリックして拡大、「-」印の緑ボタンをクリックして縮小、緑色の三角印をクリックして隣りの地図に切り替え


METAR-TAF: